Time;durP1;ratioP1;P1;durP2;ratioP2;P2;SDS_P1;SDS_P2;PMS_P1;PMS_P2;Temp;Humidity;BMP_temperature;BMP_pressure;BME280_temperature;BME280_humidity;BME280_pressure;Samples;Min_cycle;Max_cycle;Signal;HPM_P1;HPM_P2
2022/03/30 00:01:08;;;;;;;53.22;25.00;;;5.10;99.90;;;;;;5056611;28;20051;-68
2022/03/30 00:03:34;;;;;;;50.15;23.88;;;5.20;99.90;;;;;;5067721;28;20127;-68
2022/03/30 00:06:00;;;;;;;53.60;24.92;;;5.20;99.90;;;;;;5065260;28;20072;-66
2022/03/30 00:08:26;;;;;;;;;;;5.20;99.90;;;;;;5068771;28;20532;-66
2022/03/30 00:10:51;;;;;;;50.35;26.10;;;5.10;99.90;;;;;;5066548;28;19923;-66
2022/03/30 00:13:17;;;;;;;;;;;5.10;99.90;;;;;;5070555;28;20040;-66
2022/03/30 00:15:43;;;;;;;47.42;23.17;;;5.10;99.90;;;;;;5065238;28;19917;-67
2022/03/30 00:18:09;;;;;;;50.40;26.08;;;5.10;99.90;;;;;;5061369;28;20064;-67
2022/03/30 00:20:35;;;;;;;46.65;24.70;;;5.10;99.90;;;;;;5060935;28;20094;-67
2022/03/30 00:23:01;;;;;;;49.92;24.70;;;5.20;99.90;;;;;;5054373;28;20098;-67
2022/03/30 00:25:27;;;;;;;49.13;25.27;;;5.20;99.90;;;;;;5051497;28;20633;-66
2022/03/30 00:27:53;;;;;;;51.70;24.98;;;5.20;99.90;;;;;;5056620;28;20479;-66
2022/03/30 00:30:18;;;;;;;;;;;5.20;99.90;;;;;;5055458;28;20091;-66
2022/03/30 00:32:44;;;;;;;49.03;24.70;;;5.20;99.90;;;;;;5055511;28;20264;-66
2022/03/30 00:35:10;;;;;;;;;;;5.20;99.90;;;;;;5054250;28;20053;-67
2022/03/30 00:37:36;;;;;;;52.88;26.48;;;5.20;99.90;;;;;;5053491;28;19920;-66
2022/03/30 00:40:08;;;;;;;57.13;25.13;;;5.20;99.90;;;;;;5058011;28;20409;-67
2022/03/30 00:42:34;;;;;;;52.55;25.83;;;5.20;99.90;;;;;;5054782;28;20796;-67
2022/03/30 00:45:11;;;;;;;49.00;24.10;;;5.30;99.90;;;;;;5054708;28;20124;-66
2022/03/30 00:47:37;;;;;;;52.00;24.40;;;5.40;99.90;;;;;;5054745;28;20048;-66
2022/03/30 00:50:05;;;;;;;49.70;24.98;;;5.40;99.90;;;;;;5056183;28;20675;-67
2022/03/30 00:52:31;;;;;;;51.88;25.40;;;5.40;99.90;;;;;;5055867;28;20063;-66
2022/03/30 00:55:00;;;;;;;56.03;25.90;;;5.40;99.90;;;;;;5056355;28;20101;-66
2022/03/30 00:57:28;;;;;;;48.33;25.40;;;5.40;99.90;;;;;;5055056;28;20064;-66
2022/03/30 00:59:54;;;;;;;54.05;24.33;;;5.40;99.90;;;;;;5053434;28;20124;-66
2022/03/30 01:02:20;;;;;;;51.83;26.05;;;5.40;99.90;;;;;;5052362;28;20068;-66
2022/03/30 01:04:47;;;;;;;50.17;24.48;;;5.30;99.90;;;;;;5056006;28;20041;-67
2022/03/30 01:07:13;;;;;;;55.05;24.38;;;5.30;99.90;;;;;;5053147;28;20116;-66
2022/03/30 01:09:39;;;;;;;52.72;25.52;;;5.30;99.90;;;;;;5052576;28;20705;-66
2022/03/30 01:12:07;;;;;;;50.65;26.23;;;5.30;99.90;;;;;;5054823;28;20028;-67
2022/03/30 01:14:34;;;;;;;56.25;25.60;;;5.40;99.90;;;;;;5052870;28;20598;-66
2022/03/30 01:17:00;;;;;;;51.53;25.60;;;5.40;99.90;;;;;;5053169;28;20032;-66
2022/03/30 01:19:30;;;;;;;56.10;26.75;;;5.40;99.90;;;;;;5052870;28;20411;-66
2022/03/30 01:21:56;;;;;;;56.22;27.45;;;5.40;99.90;;;;;;5053131;28;20041;-66
2022/03/30 01:24:22;;;;;;;56.90;26.27;;;5.40;99.90;;;;;;5052337;28;20044;-66
2022/03/30 01:26:48;;;;;;;;;;;5.40;99.90;;;;;;5054458;28;20508;-66
2022/03/30 01:34:43;;;;;;;55.45;26.17;;;5.40;99.90;;;;;;5051692;28;20688;-65
2022/03/30 01:37:11;;;;;;;52.03;25.70;;;5.40;99.90;;;;;;5051930;28;20492;-67
2022/03/30 01:39:37;;;;;;;55.65;26.60;;;5.40;99.90;;;;;;5053587;28;20052;-66
2022/03/30 01:42:04;;;;;;;52.30;25.60;;;5.30;99.90;;;;;;5054754;28;20489;-67
2022/03/30 01:44:30;;;;;;;50.72;26.30;;;5.30;99.90;;;;;;5065626;28;20455;-67
2022/03/30 01:46:56;;;;;;;57.17;27.00;;;5.30;99.90;;;;;;5051833;28;20097;-67
2022/03/30 01:49:21;;;;;;;51.25;26.38;;;5.30;99.90;;;;;;5052596;28;20045;-67
2022/03/30 01:51:49;;;;;;;57.67;26.23;;;5.30;99.90;;;;;;5052104;28;20135;-67
2022/03/30 01:54:20;;;;;;;54.63;26.67;;;5.30;99.90;;;;;;5052440;28;20702;-66
2022/03/30 01:56:47;;;;;;;60.47;26.73;;;5.30;99.90;;;;;;5052098;28;20708;-67
2022/03/30 01:59:12;;;;;;;51.22;25.52;;;5.30;99.90;;;;;;5051998;28;20041;-67
2022/03/30 02:01:38;;;;;;;52.67;25.60;;;5.30;99.90;;;;;;5052268;28;20037;-67
2022/03/30 02:04:06;;;;;;;51.95;25.23;;;5.30;99.90;;;;;;5053142;28;20051;-67
2022/03/30 02:06:32;;;;;;;59.78;28.42;;;5.30;99.90;;;;;;5049964;28;20102;-67
2022/03/30 02:08:58;;;;;;;50.00;26.30;;;5.30;99.90;;;;;;5049054;28;20048;-67
2022/03/30 02:11:25;;;;;;;55.80;26.38;;;5.40;99.90;;;;;;5051998;28;20740;-67
2022/03/30 02:13:51;;;;;;;54.88;26.63;;;5.30;99.90;;;;;;5050168;28;20127;-67
2022/03/30 02:16:16;;;;;;;50.67;26.48;;;5.40;99.90;;;;;;5053945;28;20123;-67
2022/03/30 02:18:42;;;;;;;57.47;25.77;;;5.30;99.90;;;;;;5053653;28;20036;-67
2022/03/30 02:21:07;;;;;;;49.22;24.67;;;5.30;99.90;;;;;;5052049;28;20051;-67
2022/03/30 02:23:33;;;;;;;;;;;5.30;99.90;;;;;;5052164;28;20488;-72
2022/03/30 02:25:58;;;;;;;48.92;25.25;;;5.30;99.90;;;;;;5051981;28;19921;-67
2022/03/30 02:28:24;;;;;;;;;;;5.30;99.90;;;;;;5052890;28;20522;-67
2022/03/30 02:30:50;;;;;;;51.25;25.35;;;5.40;99.90;;;;;;5050538;28;19916;-67
2022/03/30 02:33:16;;;;;;;50.33;25.65;;;5.40;99.90;;;;;;5051794;28;20071;-67
2022/03/30 02:35:41;;;;;;;56.08;26.75;;;5.40;99.90;;;;;;5051217;28;20703;-67
2022/03/30 02:38:07;;;;;;;;;;;5.30;99.90;;;;;;5051043;28;20049;-67
2022/03/30 02:40:32;;;;;;;55.70;26.88;;;5.30;99.90;;;;;;5052800;28;19983;-67
2022/03/30 02:42:58;;;;;;;57.22;27.48;;;5.20;99.90;;;;;;5051555;28;20075;-67
2022/03/30 02:45:23;;;;;;;54.47;25.80;;;5.20;99.90;;;;;;5051976;28;20037;-66
2022/03/30 02:50:33;;;;;;;48.17;24.58;;;5.30;99.90;;;;;;5051083;28;20288;-67
2022/03/30 02:52:59;;;;;;;55.20;25.63;;;5.20;99.90;;;;;;5052780;28;20048;-67
2022/03/30 02:55:24;;;;;;;58.88;28.13;;;5.20;99.90;;;;;;5051522;28;20045;-67
2022/03/30 02:57:50;;;;;;;56.53;25.42;;;5.20;99.90;;;;;;5052546;28;20463;-66
2022/03/30 03:00:16;;;;;;;51.63;24.83;;;5.20;99.90;;;;;;5052440;28;20476;-68
2022/03/30 03:02:42;;;;;;;45.88;20.70;;;5.10;99.90;;;;;;5051605;28;20083;-67
2022/03/30 03:05:08;;;;;;;45.83;24.13;;;5.00;99.90;;;;;;5052043;28;20044;-67
2022/03/30 03:07:33;;;;;;;52.35;25.80;;;5.00;99.90;;;;;;5051506;28;20440;-67
2022/03/30 03:10:14;;;;;;;52.70;26.05;;;5.00;99.90;;;;;;5051385;28;20660;-67
2022/03/30 03:12:40;;;;;;;61.95;28.17;;;5.00;99.90;;;;;;5052114;28;20045;-67
2022/03/30 03:15:06;;;;;;;57.20;25.63;;;5.00;99.90;;;;;;5052049;28;20040;-67
2022/03/30 03:17:32;;;;;;;55.45;24.50;;;5.00;99.90;;;;;;5053050;28;20703;-67
2022/03/30 03:19:57;;;;;;;50.75;22.92;;;5.00;99.90;;;;;;5056844;28;20041;-67
2022/03/30 03:22:23;;;;;;;;;;;4.90;99.90;;;;;;5051009;28;20119;-67
2022/03/30 03:24:48;;;;;;;41.72;21.05;;;4.90;99.90;;;;;;5052149;28;19924;-67
2022/03/30 03:27:14;;;;;;;39.95;20.70;;;5.00;99.90;;;;;;5052528;28;20655;-67
2022/03/30 03:29:40;;;;;;;;;;;4.90;99.90;;;;;;5053577;28;20040;-67
2022/03/30 03:32:06;;;;;;;45.15;20.75;;;5.00;99.90;;;;;;5051457;28;20003;-67
2022/03/30 03:34:32;;;;;;;51.88;22.73;;;4.90;99.90;;;;;;5051406;28;20049;-67
2022/03/30 03:36:58;;;;;;;47.35;22.55;;;4.90;99.90;;;;;;5051803;28;20045;-67
2022/03/30 03:39:23;;;;;;;48.03;22.23;;;5.00;99.90;;;;;;5051146;28;20407;-66
2022/03/30 03:41:49;;;;;;;44.53;22.08;;;5.00;99.90;;;;;;5053059;28;20086;-67
2022/03/30 03:44:14;;;;;;;;;;;5.00;99.90;;;;;;5052245;28;20044;-67
2022/03/30 03:46:40;;;;;;;44.17;23.05;;;4.90;99.90;;;;;;5052303;28;19972;-67
2022/03/30 03:49:06;;;;;;;53.63;25.38;;;4.80;99.90;;;;;;5051493;28;20683;-67
2022/03/30 03:51:31;;;;;;;;;;;4.80;99.90;;;;;;5052535;28;20046;-67
2022/03/30 03:53:57;;;;;;;59.17;27.13;;;4.80;99.90;;;;;;5053778;28;20003;-67
2022/03/30 03:56:22;;;;;;;;;;;4.90;99.90;;;;;;5056091;28;20385;-67
2022/03/30 03:58:49;;;;;;;45.63;22.23;;;4.90;99.90;;;;;;5055143;28;19970;-67
2022/03/30 04:01:15;;;;;;;48.53;21.25;;;4.90;99.90;;;;;;5053636;28;20035;-67
2022/03/30 04:03:44;;;;;;;45.67;22.27;;;4.90;99.90;;;;;;5053847;28;20416;-67
2022/03/30 04:06:10;;;;;;;51.10;23.85;;;5.00;99.90;;;;;;5050709;28;20044;-68
2022/03/30 04:08:35;;;;;;;54.75;24.27;;;4.90;99.90;;;;;;5052070;28;20616;-69
2022/03/30 04:11:01;;;;;;;54.83;24.25;;;4.90;99.90;;;;;;5052561;28;20496;-68
2022/03/30 04:13:27;;;;;;;50.53;24.52;;;4.90;99.90;;;;;;5049554;28;20037;-68
2022/03/30 04:15:52;;;;;;;;;;;4.90;99.90;;;;;;5052745;28;20036;-68
2022/03/30 04:18:18;;;;;;;49.63;24.55;;;4.90;99.90;;;;;;5052286;28;19923;-68
2022/03/30 04:20:44;;;;;;;65.38;27.75;;;4.90;99.90;;;;;;5050987;28;20041;-69
2022/03/30 04:23:11;;;;;;;63.60;30.13;;;4.90;99.90;;;;;;5051809;28;20052;-68
2022/03/30 04:25:36;;;;;;;62.33;29.20;;;4.80;99.90;;;;;;5050015;28;20125;-68
2022/03/30 04:28:03;;;;;;;62.05;29.33;;;4.80;99.90;;;;;;5050600;28;20480;-69
2022/03/30 04:30:28;;;;;;;57.22;27.60;;;4.80;99.90;;;;;;5051365;28;20068;-69
2022/03/30 04:32:54;;;;;;;60.40;27.77;;;4.70;99.90;;;;;;5049886;28;20064;-68
2022/03/30 04:35:25;;;;;;;59.25;28.85;;;4.70;99.90;;;;;;5052971;28;20036;-65
2022/03/30 04:37:55;;;;;;;53.88;27.98;;;4.70;99.90;;;;;;5049747;28;20033;-69
2022/03/30 04:40:22;;;;;;;60.90;28.23;;;4.80;99.90;;;;;;5049617;28;20029;-68
2022/03/30 04:42:49;;;;;;;60.70;28.75;;;4.60;99.90;;;;;;5053522;28;20539;-68
2022/03/30 04:45:14;;;;;;;65.70;30.52;;;4.70;99.90;;;;;;5055208;28;20037;-70
2022/03/30 04:47:40;;;;;;;70.75;30.13;;;4.70;99.90;;;;;;5056501;28;20047;-68
2022/03/30 04:50:06;;;;;;;68.28;30.45;;;4.70;99.90;;;;;;5054983;28;20076;-69
2022/03/30 04:52:32;;;;;;;63.05;29.55;;;4.60;99.90;;;;;;5054781;28;20040;-68
2022/03/30 04:54:58;;;;;;;63.78;29.77;;;4.60;99.90;;;;;;5051004;28;20044;-66
2022/03/30 04:57:24;;;;;;;68.28;29.67;;;4.50;99.90;;;;;;5051891;28;20041;-67
2022/03/30 04:59:49;;;;;;;62.17;29.17;;;4.50;99.90;;;;;;5053839;28;20040;-71
2022/03/30 05:02:15;;;;;;;60.30;28.75;;;4.50;99.90;;;;;;5053024;28;20618;-70
2022/03/30 05:04:41;;;;;;;68.65;30.63;;;4.60;99.90;;;;;;5054884;28;20124;-70
2022/03/30 05:07:07;;;;;;;58.83;29.83;;;4.60;99.90;;;;;;5055019;28;20089;-68
2022/03/30 05:09:33;;;;;;;63.53;30.08;;;4.50;99.90;;;;;;5052297;28;20040;-64
2022/03/30 05:11:58;;;;;;;55.65;26.48;;;4.60;99.90;;;;;;5054955;28;20045;-67
2022/03/30 05:14:24;;;;;;;65.85;29.58;;;4.50;99.90;;;;;;5048611;28;20110;-67
2022/03/30 05:16:49;;;;;;;56.60;27.77;;;4.50;99.90;;;;;;5052462;28;20459;-67
2022/03/30 05:19:15;;;;;;;70.45;30.45;;;4.50;99.90;;;;;;5053420;28;20529;-66
2022/03/30 05:21:41;;;;;;;60.05;29.10;;;4.50;99.90;;;;;;5053346;28;20032;-66
2022/03/30 05:24:06;;;;;;;;;;;4.50;99.90;;;;;;5052569;28;20143;-66
2022/03/30 05:26:32;;;;;;;60.42;28.52;;;4.40;99.90;;;;;;5050439;28;19920;-66
2022/03/30 05:28:58;;;;;;;65.85;30.85;;;4.50;99.90;;;;;;5055229;28;20033;-67
2022/03/30 05:31:23;;;;;;;66.78;29.33;;;4.50;99.90;;;;;;5052006;28;20072;-66
2022/03/30 05:33:49;;;;;;;58.97;28.92;;;4.50;99.90;;;;;;5028834;28;20658;-66
2022/03/30 05:36:15;;;;;;;59.65;29.65;;;4.40;99.90;;;;;;5047510;28;20605;-66
2022/03/30 05:38:41;;;;;;;57.45;26.75;;;4.40;99.90;;;;;;5039689;28;20072;-66
2022/03/30 05:41:06;;;;;;;65.75;31.33;;;4.40;99.90;;;;;;5049762;28;20037;-66
2022/03/30 05:43:32;;;;;;;67.20;30.33;;;4.40;99.90;;;;;;5051969;28;20724;-67
2022/03/30 05:45:58;;;;;;;65.75;30.17;;;4.40;99.90;;;;;;5050858;28;20037;-66
2022/03/30 05:48:24;;;;;;;69.35;31.52;;;4.40;99.90;;;;;;5048783;28;20043;-66
2022/03/30 05:50:52;;;;;;;71.38;29.52;;;4.40;99.90;;;;;;5048622;28;20036;-66
2022/03/30 05:53:18;;;;;;;59.90;29.33;;;4.40;99.90;;;;;;5046930;28;20703;-67
2022/03/30 05:55:44;;;;;;;66.10;29.90;;;4.40;99.90;;;;;;5050732;28;20127;-66
2022/03/30 05:58:11;;;;;;;66.35;28.60;;;4.40;99.90;;;;;;5029691;28;20048;-66
2022/03/30 06:00:37;;;;;;;66.40;29.27;;;4.50;99.90;;;;;;5048048;28;20041;-67
2022/03/30 06:03:02;;;;;;;58.28;30.17;;;4.50;99.90;;;;;;5048582;28;20097;-66
2022/03/30 06:05:28;;;;;;;68.70;30.33;;;4.50;99.90;;;;;;5052540;28;20041;-66
2022/03/30 06:07:57;;;;;;;65.00;30.38;;;4.50;99.90;;;;;;5051202;28;20667;-66
2022/03/30 06:10:25;;;;;;;57.97;28.70;;;4.60;99.90;;;;;;5041390;28;20044;-66
2022/03/30 06:12:51;;;;;;;63.35;29.63;;;4.60;99.90;;;;;;5052741;28;20078;-66
2022/03/30 06:15:17;;;;;;;54.83;25.98;;;4.60;99.90;;;;;;5049257;28;20032;-66
2022/03/30 06:17:43;;;;;;;59.58;28.08;;;4.60;99.90;;;;;;5052414;28;20052;-66
2022/03/30 06:20:10;;;;;;;54.05;26.25;;;4.70;99.90;;;;;;5054738;28;20032;-66
2022/03/30 06:22:36;;;;;;;63.58;28.05;;;4.70;99.90;;;;;;5074853;28;20045;-66
2022/03/30 06:25:02;;;;;;;59.28;26.33;;;4.70;99.90;;;;;;5051467;28;20044;-66
2022/03/30 06:27:28;;;;;;;61.25;29.35;;;4.60;99.90;;;;;;5052496;28;20048;-66
2022/03/30 06:29:54;;;;;;;67.45;28.58;;;4.70;99.90;;;;;;5052391;28;20052;-66
2022/03/30 06:32:19;;;;;;;58.70;28.55;;;4.80;99.90;;;;;;5052354;28;20040;-66
2022/03/30 06:34:45;;;;;;;56.88;26.92;;;4.90;99.90;;;;;;5051982;28;20142;-67
2022/03/30 06:37:11;;;;;;;64.78;27.08;;;5.00;99.90;;;;;;5051271;28;20118;-66
2022/03/30 06:39:37;;;;;;;53.83;27.92;;;5.10;99.90;;;;;;5051667;28;20036;-66
2022/03/30 06:42:03;;;;;;;;;;;5.10;99.90;;;;;;5051094;28;20040;-66
2022/03/30 06:44:31;;;;;;;59.40;25.90;;;5.20;99.90;;;;;;5045784;28;20734;-66
2022/03/30 06:46:57;;;;;;;50.10;25.15;;;5.20;99.90;;;;;;5048537;28;20049;-67
2022/03/30 06:49:22;;;;;;;63.35;27.02;;;5.40;99.90;;;;;;5052790;28;20056;-67
2022/03/30 06:51:48;;;;;;;48.72;24.73;;;5.40;99.90;;;;;;5052264;28;20041;-68
2022/03/30 06:54:13;;;;;;;;;;;5.60;99.90;;;;;;5050428;28;20047;-67
2022/03/30 06:56:39;;;;;;;51.55;24.70;;;5.60;99.90;;;;;;5049844;28;19917;-67
2022/03/30 06:59:05;;;;;;;62.88;26.55;;;5.70;99.90;;;;;;5052057;28;20040;-67
2022/03/30 07:01:30;;;;;;;;;;;5.80;99.90;;;;;;5052422;28;20536;-66
2022/03/30 07:03:56;;;;;;;59.15;25.10;;;6.10;99.90;;;;;;5050241;28;19970;-65
2022/03/30 07:06:22;;;;;;;63.80;26.30;;;6.20;99.90;;;;;;5050018;28;20170;-68
2022/03/30 07:11:32;;;;;;;46.60;20.83;;;6.40;99.90;;;;;;5052585;28;19970;-67
2022/03/30 07:13:58;;;;;;;;;;;6.70;99.90;;;;;;5052900;28;20048;-67
2022/03/30 07:16:24;;;;;;;47.60;20.83;;;6.80;99.90;;;;;;5052642;28;19943;-67
2022/03/30 07:18:50;;;;;;;41.28;20.17;;;7.00;99.90;;;;;;5072190;28;20068;-67
2022/03/30 07:21:16;;;;;;;40.95;20.55;;;7.10;99.90;;;;;;5051972;28;20060;-67
2022/03/30 07:23:41;;;;;;;;;;;7.30;99.90;;;;;;5050526;28;20048;-67
2022/03/30 07:26:07;;;;;;;45.95;21.13;;;7.40;99.90;;;;;;5052494;28;20674;-67
2022/03/30 07:28:35;;;;;;;41.72;20.50;;;7.60;99.90;;;;;;5053619;28;20132;-66
2022/03/30 07:31:01;;;;;;;52.72;24.30;;;7.80;99.90;;;;;;5054829;28;20032;-66
2022/03/30 07:33:28;;;;;;;;;;;7.70;99.90;;;;;;5053421;28;20537;-66
2022/03/30 07:35:53;;;;;;;42.90;22.70;;;7.60;99.90;;;;;;5055741;28;20648;-66
2022/03/30 07:38:20;;;;;;;;;;;7.80;99.90;;;;;;5054520;28;20037;-69
2022/03/30 07:40:48;;;;;;;50.30;22.75;;;8.10;99.90;;;;;;5055236;28;19978;-68
2022/03/30 07:43:15;;;;;;;45.75;22.63;;;7.90;99.90;;;;;;5056685;28;20032;-68
2022/03/30 07:45:41;;;;;;;49.75;22.52;;;8.00;99.90;;;;;;5055639;28;20033;-70
2022/03/30 07:48:12;;;;;;;51.38;24.20;;;7.90;99.90;;;;;;5053789;28;20737;-68
2022/03/30 07:50:38;;;;;;;52.20;22.80;;;7.80;99.90;;;;;;5054139;28;20044;-67
2022/03/30 07:53:07;;;;;;;57.95;24.90;;;7.90;99.90;;;;;;5054237;28;20032;-67
2022/03/30 07:55:34;;;;;;;54.38;23.42;;;8.00;99.90;;;;;;5054630;28;20037;-67
2022/03/30 07:58:01;;;;;;;44.63;22.52;;;7.90;99.90;;;;;;5055169;28;20052;-67
2022/03/30 08:00:27;;;;;;;56.10;24.25;;;7.80;99.90;;;;;;5075816;28;20056;-67
2022/03/30 08:02:53;;;;;;;53.28;25.08;;;7.90;99.90;;;;;;5055380;28;20481;-68
2022/03/30 08:05:18;;;;;;;;;;;7.80;99.90;;;;;;5053550;28;20045;-67
2022/03/30 08:07:46;;;;;;;54.17;24.10;;;8.00;99.90;;;;;;5054148;28;20034;-67
2022/03/30 08:10:12;;;;;;;54.80;24.55;;;8.30;99.90;;;;;;5054924;28;20840;-67
2022/03/30 08:12:42;;;;;;;46.40;21.50;;;8.80;99.90;;;;;;5056095;28;20044;-67
2022/03/30 08:15:09;;;;;;;39.67;20.50;;;9.50;99.90;;;;;;5055095;28;20097;-67
2022/03/30 08:17:35;;;;;;;45.05;20.52;;;10.30;99.00;;;;;;5054019;28;20040;-69
2022/03/30 08:20:01;;;;;;;41.88;19.45;;;11.30;99.10;;;;;;5056297;28;20045;-67
2022/03/30 08:22:28;;;;;;;;;;;11.90;97.30;;;;;;5054370;28;20041;-67
2022/03/30 08:25:07;;;;;;;47.90;20.48;;;12.50;93.00;;;;;;5052944;28;20019;-67
2022/03/30 08:27:34;;;;;;;37.25;19.02;;;12.60;92.20;;;;;;5054847;28;20169;-67
2022/03/30 08:30:00;;;;;;;42.58;18.70;;;12.60;92.30;;;;;;5052334;28;20033;-68
2022/03/30 08:32:28;;;;;;;43.20;21.08;;;13.30;93.10;;;;;;5056883;28;20032;-69
2022/03/30 08:34:55;;;;;;;35.70;19.88;;;13.30;90.50;;;;;;5031256;22;20488;-69
2022/03/30 08:37:22;;;;;;;36.58;16.50;;;13.40;90.30;;;;;;5023201;28;20073;-68
2022/03/30 08:39:51;;;;;;;34.67;17.15;;;13.10;88.70;;;;;;5034256;28;20436;-68
2022/03/30 08:42:17;;;;;;;36.53;15.45;;;12.20;88.70;;;;;;5026273;28;20045;-68
2022/03/30 08:44:43;;;;;;;;;;;11.00;89.30;;;;;;5022889;28;20045;-68
2022/03/30 08:47:11;;;;;;;31.48;13.80;;;10.00;90.30;;;;;;5020667;28;19955;-68
2022/03/30 08:49:38;;;;;;;33.72;14.50;;;9.20;92.20;;;;;;5020884;28;20045;-69
2022/03/30 08:52:06;;;;;;;33.88;15.43;;;8.70;93.00;;;;;;5019221;28;20402;-68
2022/03/30 08:54:33;;;;;;;35.70;15.63;;;8.40;93.20;;;;;;5020194;28;20046;-68
2022/03/30 08:56:58;;;;;;;42.10;17.02;;;8.20;94.90;;;;;;5023468;28;20048;-68
2022/03/30 08:59:24;;;;;;;;;;;8.30;94.90;;;;;;5024724;28;20037;-68
2022/03/30 09:01:54;;;;;;;36.75;15.93;;;8.10;95.90;;;;;;5023932;28;20004;-71
2022/03/30 09:04:20;;;;;;;34.13;15.15;;;8.10;96.70;;;;;;5022445;28;20038;-67
2022/03/30 09:06:51;;;;;;;36.53;18.02;;;8.00;96.10;;;;;;5020923;28;20545;-68
2022/03/30 09:09:27;;;;;;;40.70;17.00;;;7.80;96.80;;;;;;5021434;28;20135;-67
2022/03/30 09:11:55;;;;;;;39.63;17.60;;;7.70;96.40;;;;;;5020527;28;20103;-67
2022/03/30 09:14:23;;;;;;;40.42;17.73;;;7.80;96.60;;;;;;5019506;28;20045;-68
2022/03/30 09:16:51;;;;;;;35.92;16.15;;;7.90;96.90;;;;;;5021553;28;20045;-67
2022/03/30 09:19:20;;;;;;;36.53;15.98;;;8.00;97.30;;;;;;5016693;28;20123;-68
2022/03/30 09:21:47;;;;;;;53.58;18.92;;;8.00;95.70;;;;;;5023440;28;20103;-68
2022/03/30 09:24:16;;;;;;;39.83;17.27;;;8.30;97.70;;;;;;5020810;28;20038;-68
2022/03/30 09:26:43;;;;;;;28.40;14.55;;;8.30;96.90;;;;;;5020554;28;20042;-67
2022/03/30 09:29:09;;;;;;;38.58;16.92;;;8.50;95.60;;;;;;5035212;28;20077;-68
2022/03/30 09:31:38;;;;;;;42.65;15.93;;;8.70;95.90;;;;;;5020272;28;20596;-68
2022/03/30 09:34:06;;;;;;;23.60;12.68;;;8.80;94.80;;;;;;5022337;28;20041;-68
2022/03/30 09:36:34;;;;;;;36.30;15.95;;;8.60;93.40;;;;;;5023244;28;20688;-69
2022/03/30 09:39:00;;;;;;;37.45;16.00;;;8.60;94.50;;;;;;5024024;28;20635;-69
2022/03/30 09:41:25;;;;;;;;;;;8.60;96.50;;;;;;5022914;28;20113;-69
2022/03/30 09:44:03;;;;;;;36.35;15.90;;;8.60;93.70;;;;;;5021920;28;19970;-69
2022/03/30 09:46:28;;;;;;;31.42;14.63;;;8.60;95.20;;;;;;5022871;28;20103;-69
2022/03/30 09:48:54;;;;;;;;;;;8.70;94.10;;;;;;5038244;28;20045;-69
2022/03/30 09:51:22;;;;;;;38.47;15.52;;;8.70;93.90;;;;;;5021979;28;20355;-69
2022/03/30 09:53:49;;;;;;;46.92;17.52;;;8.60;93.90;;;;;;5022517;28;20136;-69
2022/03/30 09:56:15;;;;;;;35.75;15.23;;;8.70;94.60;;;;;;5022430;28;20052;-68
2022/03/30 09:58:43;;;;;;;32.95;15.55;;;8.60;93.70;;;;;;5023295;28;20865;-69
2022/03/30 10:01:13;;;;;;;32.42;15.00;;;8.70;95.30;;;;;;5021320;28;20045;-69
2022/03/30 10:03:51;;;;;;;31.55;15.40;;;8.60;96.00;;;;;;5023011;28;20501;-70
2022/03/30 10:06:19;;;;;;;38.72;14.93;;;8.80;94.50;;;;;;5022500;28;20049;-69
2022/03/30 10:08:46;;;;;;;36.15;15.45;;;8.90;94.40;;;;;;5039740;28;20041;-69
2022/03/30 10:11:15;;;;;;;36.03;15.45;;;8.70;94.30;;;;;;5023758;28;20033;-69
2022/03/30 10:13:41;;;;;;;37.58;16.75;;;8.70;94.80;;;;;;5023243;28;20052;-68
2022/03/30 10:16:08;;;;;;;;;;;8.70;95.90;;;;;;5023754;28;20093;-68
2022/03/30 10:18:34;;;;;;;34.88;15.30;;;8.60;93.30;;;;;;5023131;28;20051;-68
2022/03/30 10:21:19;;;;;;;31.95;14.77;;;8.70;94.90;;;;;;5023537;28;20056;-68
2022/03/30 10:24:20;;;;;;;32.85;13.98;;;8.80;94.10;;;;;;5023296;28;20469;-68
2022/03/30 10:27:00;;;;;;;34.75;14.90;;;8.90;93.50;;;;;;5023568;28;20052;-68
2022/03/30 10:29:28;;;;;;;42.30;15.50;;;8.90;93.40;;;;;;5021439;28;20095;-68
2022/03/30 10:32:13;;;;;;;31.90;14.55;;;8.70;94.30;;;;;;5022973;28;20053;-68
2022/03/30 10:34:56;;;;;;;28.27;13.02;;;8.90;94.60;;;;;;5022813;28;20067;-68
2022/03/30 10:37:26;;;;;;;29.45;13.13;;;9.00;93.20;;;;;;5023401;28;20053;-69
2022/03/30 10:40:03;;;;;;;45.20;15.10;;;9.10;93.90;;;;;;5021691;28;20117;-67
2022/03/30 10:42:47;;;;;;;34.97;13.55;;;9.20;93.60;;;;;;5023087;28;20047;-67
2022/03/30 10:45:28;;;;;;;34.50;14.65;;;9.60;93.40;;;;;;5021824;28;20037;-68
2022/03/30 10:48:36;;;;;;;30.88;15.15;;;9.80;92.80;;;;;;5022553;28;20037;-67
2022/03/30 10:51:08;;;;;;;37.13;15.55;;;9.80;92.90;;;;;;5022063;28;20059;-68
2022/03/30 10:53:35;;;;;;;40.60;16.95;;;9.60;93.60;;;;;;5021974;28;20502;-68
2022/03/30 10:56:15;;;;;;;25.60;13.82;;;9.40;95.50;;;;;;5022160;28;20076;-68
2022/03/30 10:58:52;;;;;;;31.27;15.02;;;9.50;95.10;;;;;;5019696;28;20096;-67
2022/03/30 11:01:21;;;;;;;28.52;13.60;;;9.70;93.50;;;;;;5019991;28;20068;-67
2022/03/30 11:04:02;;;;;;;29.70;13.65;;;9.80;92.40;;;;;;5021619;28;20061;-68
2022/03/30 11:06:29;;;;;;;30.23;14.63;;;9.90;92.20;;;;;;5015671;28;20038;-67
2022/03/30 11:08:57;;;;;;;26.05;12.65;;;9.90;91.50;;;;;;5021473;28;20377;-68
2022/03/30 11:11:34;;;;;;;34.55;14.30;;;9.80;91.70;;;;;;5022353;28;20049;-68
2022/03/30 11:14:25;;;;;;;31.65;14.20;;;10.00;91.70;;;;;;5025164;28;20048;-68
2022/03/30 11:17:02;;;;;;;31.52;13.70;;;10.40;92.10;;;;;;5020637;28;20041;-69
2022/03/30 11:19:49;;;;;;;32.70;13.75;;;10.70;92.20;;;;;;5017977;28;20414;-69
2022/03/30 11:22:21;;;;;;;29.40;13.68;;;10.80;91.30;;;;;;5021881;28;20113;-69
2022/03/30 11:25:12;;;;;;;31.05;13.10;;;10.20;90.20;;;;;;5022599;28;20030;-69
2022/03/30 11:27:39;;;;;;;29.98;12.55;;;10.10;91.60;;;;;;5016570;28;20048;-68
2022/03/30 11:30:05;;;;;;;30.35;12.93;;;10.40;90.50;;;;;;5041552;28;20128;-68
2022/03/30 11:32:38;;;;;;;;;;;10.30;91.20;;;;;;5020896;28;20128;-67
2022/03/30 11:35:06;;;;;;;33.53;13.43;;;10.50;89.40;;;;;;5022038;28;19921;-68
2022/03/30 11:37:35;;;;;;;30.92;13.93;;;10.80;89.40;;;;;;5020811;28;20649;-69
2022/03/30 11:40:08;;;;;;;33.33;14.25;;;10.40;88.10;;;;;;5021227;28;20113;-68
2022/03/30 11:42:37;;;;;;;35.03;13.75;;;10.10;90.00;;;;;;5020601;28;20095;-69
2022/03/30 11:45:12;;;;;;;33.13;13.73;;;10.20;90.50;;;;;;5020370;28;20076;-68
2022/03/30 11:47:43;;;;;;;28.13;13.98;;;10.20;90.00;;;;;;5021637;28;20153;-68
2022/03/30 11:50:14;;;;;;;33.00;14.10;;;10.20;89.70;;;;;;5020035;28;20501;-69
2022/03/30 11:52:40;;;;;;;28.65;14.05;;;10.10;90.20;;;;;;5019233;28;20524;-69
2022/03/30 11:55:09;;;;;;;33.00;15.60;;;9.90;91.70;;;;;;5020762;28;20033;-68
2022/03/30 11:57:41;;;;;;;35.22;14.63;;;10.00;91.50;;;;;;5020748;28;20107;-69
2022/03/30 12:00:09;;;;;;;36.53;13.65;;;10.20;91.70;;;;;;5020946;28;20042;-69
2022/03/30 12:02:44;;;;;;;33.58;14.88;;;10.30;91.90;;;;;;5019116;28;20033;-68
2022/03/30 12:05:10;;;;;;;42.92;15.73;;;10.20;91.30;;;;;;5021361;28;20045;-70
2022/03/30 12:07:38;;;;;;;32.33;14.70;;;10.10;92.80;;;;;;5020523;28;20037;-68
2022/03/30 12:10:12;;;;;;;36.20;15.55;;;10.10;92.90;;;;;;5020634;28;20106;-68
2022/03/30 12:12:40;;;;;;;32.55;16.00;;;9.90;92.20;;;;;;5016407;28;20429;-68
2022/03/30 12:15:17;;;;;;;37.10;14.73;;;9.70;93.30;;;;;;5022601;28;20045;-68
2022/03/30 12:17:49;;;;;;;32.45;15.45;;;10.00;93.10;;;;;;5024191;28;20038;-68
2022/03/30 12:20:24;;;;;;;31.95;15.35;;;10.20;94.00;;;;;;5038417;28;20038;-67
2022/03/30 12:23:01;;;;;;;34.00;16.10;;;10.40;92.30;;;;;;5037765;28;20033;-68
2022/03/30 12:25:32;;;;;;;37.30;16.10;;;10.30;91.60;;;;;;5036040;28;20073;-66
2022/03/30 12:28:00;;;;;;;36.38;16.20;;;10.20;91.40;;;;;;5021367;28;20045;-67
2022/03/30 12:30:38;;;;;;;30.10;15.20;;;10.20;91.30;;;;;;5022354;28;20421;-68
2022/03/30 12:33:05;;;;;;;26.52;14.57;;;10.30;91.90;;;;;;5023544;28;20045;-67
2022/03/30 12:35:37;;;;;;;32.45;15.52;;;10.50;90.40;;;;;;5023042;28;20080;-66
2022/03/30 12:38:15;;;;;;;28.98;13.25;;;10.50;89.00;;;;;;5024107;28;20038;-69
2022/03/30 12:40:42;;;;;;;30.42;14.55;;;10.60;90.00;;;;;;5022918;28;20060;-67
2022/03/30 12:43:09;;;;;;;31.20;14.80;;;10.60;89.00;;;;;;5024174;28;20623;-68
2022/03/30 12:45:59;;;;;;;27.92;14.10;;;10.50;87.00;;;;;;5024231;28;20052;-67
2022/03/30 12:48:28;;;;;;;30.92;13.10;;;10.70;90.50;;;;;;5023157;28;20053;-67
2022/03/30 12:50:54;;;;;;;34.25;14.02;;;10.80;89.50;;;;;;5020890;28;20598;-67
2022/03/30 12:53:34;;;;;;;30.30;15.05;;;10.80;85.60;;;;;;5022216;28;20048;-67
2022/03/30 12:56:13;;;;;;;32.55;14.07;;;10.60;85.60;;;;;;5022130;28;20585;-69
2022/03/30 12:59:04;;;;;;;33.58;15.00;;;10.30;87.60;;;;;;5022321;28;20088;-68
2022/03/30 13:01:36;;;;;;;22.77;12.43;;;9.80;87.80;;;;;;5022253;28;20929;-67